Napoli Jet — IQTJ — position and weather

sailwx.info

Track history (hours):
 
Tides and Currents Weather Stations Pressure Air Temp Water Temp Dewpoint Dewpoint Depression Visibility Wind Speed Wind Dir Waves Ship Positions

Napoli Jet

Last reported at 2016-Jun-24 18:30 UTC. Time now 2016-Jun-25 01:49 UTC.
Position N 40°47' E 014°17'.

Length 41 m; draft 1.3 m.

Type: Ship. MMSI: 247051400.

Date/timePositionNaut miles runAvg speedWind from/ knotsBaromVisibWave heightAir tempDewpointWater temp
2016-Jun-24 18:30N 40°47' E 014°17'1111.4
2016-Jun-24 17:33N 40°36' E 014°16'1413.8
2016-Jun-24 16:32N 40°50' E 014°17'1717.0
2016-Jun-24 15:33N 40°33' E 014°14'1712.8
2016-Jun-24 14:15N 40°50' E 014°17'1723.6
2016-Jun-24 13:33N 40°33' E 014°15'2 1.5
2016-Jun-24 12:33N 40°35' E 014°14'0 0.4
2016-Jun-24 11:33N 40°35' E 014°14'0 0.2
2016-Jun-24 10:33N 40°35' E 014°14'2 1.8
2016-Jun-24 09:33N 40°34' E 014°16'1614.5
2016-Jun-24 08:27N 40°50' E 014°16'1718.5
2016-Jun-24 07:33N 40°33' E 014°14'5 0.1
2016-Jun-22 11:18N 40°39' E 014°16'1212.6
2016-Jun-22 10:23N 40°50' E 014°16'1720.3
2016-Jun-22 09:33N 40°33' E 014°14'17 0.8
2016-Jun-21 11:25N 40°50' E 014°16'1719.3
2016-Jun-21 10:33N 40°33' E 014°14'1 1.0
2016-Jun-21 09:23N 40°33' E 014°16'1 0.1
2016-Jun-20 13:06N 40°33' E 014°14'0 0.0
2016-Jun-20 12:33N 40°33' E 014°14'0 0.0
2016-Jun-20 11:33N 40°33' E 014°14'5 4.7
2016-Jun-20 10:33N 40°38' E 014°16'5 0.2
2016-Jun-19 14:23N 40°33' E 014°14'0 0.0
2016-Jun-19 13:33N 40°33' E 014°14'17 8.0
2016-Jun-19 11:28N 40°50' E 014°16'1718.4
2016-Jun-19 10:33N 40°33' E 014°14'0 0.0
2016-Jun-19 09:33N 40°33' E 014°14'17 1.0
2016-Jun-18 16:29N 40°50' E 014°16'1718.1
2016-Jun-18 15:33N 40°33' E 014°14'1713.3
2016-Jun-18 14:17N 40°50' E 014°16'1521.1
2016-Jun-18 13:34N 40°35' E 014°16'2 1.8
2016-Jun-18 12:33N 40°33' E 014°14'7 7.3
2016-Jun-18 11:34N 40°41' E 014°17'6 6.1
2016-Jun-18 10:34N 40°47' E 014°17'1212.5
2016-Jun-18 09:34N 40°34' E 014°16'16 0.9
2016-Jun-17 16:19N 40°50' E 014°16'810.1
2016-Jun-17 15:33N 40°42' E 014°17'8 8.2
2016-Jun-17 14:33N 40°34' E 014°17'2 1.8
2016-Jun-17 13:33N 40°33' E 014°14'0 0.0
2016-Jun-17 12:34N 40°33' E 014°14'3 2.7
2016-Jun-17 11:34N 40°36' E 014°17'1512.8
2016-Jun-17 10:25N 40°50' E 014°16'1719.5
2016-Jun-17 09:33N 40°33' E 014°14'0 0.0
2016-Jun-17 08:33N 40°33' E 014°14'17 0.9
2016-Jun-16 14:31N 40°50' E 014°16'1717.3
2016-Jun-16 13:33N 40°33' E 014°14'0 0.0
2016-Jun-16 12:33N 40°33' E 014°14'9 8.6
2016-Jun-16 11:33N 40°41' E 014°20'10 9.8
2016-Jun-16 10:33N 40°50' E 014°16'1716.8
2016-Jun-16 09:33N 40°33' E 014°14'0 0.4
2016-Jun-16 08:33N 40°34' E 014°15'17 1.0
2016-Jun-15 16:09N 40°50' E 014°16'6 9.8
2016-Jun-15 15:34N 40°44' E 014°17'1110.9
2016-Jun-15 14:34N 40°33' E 014°15'0 0.2
2016-Jun-15 13:33N 40°33' E 014°14'0 0.0
2016-Jun-15 12:33N 40°33' E 014°14'0 0.0
2016-Jun-15 11:33N 40°33' E 014°14'1713.8
2016-Jun-15 10:20N 40°50' E 014°16'1721.5
2016-Jun-15 09:33N 40°33' E 014°14'0 0.0
2016-Jun-15 08:33N 40°33' E 014°14'  
Track history (hours):
 
Tides and Currents Weather Stations Pressure Air Temp Water Temp Dewpoint Dewpoint Depression Visibility Wind Speed Wind Dir Waves Ship Positions

Napoli Jet

Last reported at 2016-Jun-24 18:30 UTC. Time now 2016-Jun-25 01:49 UTC.
Position N 40°47' E 014°17'.

Length 41 m; draft 1.3 m.

Type: Ship. MMSI: 247051400.

Date/timePositionNaut miles runAvg speedWind from/ knotsBaromVisibWave heightAir tempDewpointWater temp
2016-Jun-24 18:30N 40°47' E 014°17'1111.4
2016-Jun-24 17:33N 40°36' E 014°16'1413.8
2016-Jun-24 16:32N 40°50' E 014°17'1717.0
2016-Jun-24 15:33N 40°33' E 014°14'1712.8
2016-Jun-24 14:15N 40°50' E 014°17'1723.6
2016-Jun-24 13:33N 40°33' E 014°15'2 1.5
2016-Jun-24 12:33N 40°35' E 014°14'0 0.4
2016-Jun-24 11:33N 40°35' E 014°14'0 0.2
2016-Jun-24 10:33N 40°35' E 014°14'2 1.8
2016-Jun-24 09:33N 40°34' E 014°16'1614.5
2016-Jun-24 08:27N 40°50' E 014°16'1718.5
2016-Jun-24 07:33N 40°33' E 014°14'5 0.1
2016-Jun-22 11:18N 40°39' E 014°16'1212.6
2016-Jun-22 10:23N 40°50' E 014°16'1720.3
2016-Jun-22 09:33N 40°33' E 014°14'17 0.8
2016-Jun-21 11:25N 40°50' E 014°16'1719.3
2016-Jun-21 10:33N 40°33' E 014°14'1 1.0
2016-Jun-21 09:23N 40°33' E 014°16'1 0.1
2016-Jun-20 13:06N 40°33' E 014°14'0 0.0
2016-Jun-20 12:33N 40°33' E 014°14'0 0.0
2016-Jun-20 11:33N 40°33' E 014°14'5 4.7
2016-Jun-20 10:33N 40°38' E 014°16'5 0.2
2016-Jun-19 14:23N 40°33' E 014°14'0 0.0
2016-Jun-19 13:33N 40°33' E 014°14'17 8.0
2016-Jun-19 11:28N 40°50' E 014°16'1718.4
2016-Jun-19 10:33N 40°33' E 014°14'0 0.0
2016-Jun-19 09:33N 40°33' E 014°14'17 1.0
2016-Jun-18 16:29N 40°50' E 014°16'1718.1
2016-Jun-18 15:33N 40°33' E 014°14'1713.3
2016-Jun-18 14:17N 40°50' E 014°16'1521.1
2016-Jun-18 13:34N 40°35' E 014°16'2 1.8
2016-Jun-18 12:33N 40°33' E 014°14'7 7.3
2016-Jun-18 11:34N 40°41' E 014°17'6 6.1
2016-Jun-18 10:34N 40°47' E 014°17'1212.5
2016-Jun-18 09:34N 40°34' E 014°16'16 0.9
2016-Jun-17 16:19N 40°50' E 014°16'810.1
2016-Jun-17 15:33N 40°42' E 014°17'8 8.2
2016-Jun-17 14:33N 40°34' E 014°17'2 1.8
2016-Jun-17 13:33N 40°33' E 014°14'0 0.0
2016-Jun-17 12:34N 40°33' E 014°14'3 2.7
2016-Jun-17 11:34N 40°36' E 014°17'1512.8
2016-Jun-17 10:25N 40°50' E 014°16'1719.5
2016-Jun-17 09:33N 40°33' E 014°14'0 0.0
2016-Jun-17 08:33N 40°33' E 014°14'17 0.9
2016-Jun-16 14:31N 40°50' E 014°16'1717.3
2016-Jun-16 13:33N 40°33' E 014°14'0 0.0
2016-Jun-16 12:33N 40°33' E 014°14'9 8.6
2016-Jun-16 11:33N 40°41' E 014°20'10 9.8
2016-Jun-16 10:33N 40°50' E 014°16'1716.8
2016-Jun-16 09:33N 40°33' E 014°14'0 0.4
2016-Jun-16 08:33N 40°34' E 014°15'17 1.0
2016-Jun-15 16:09N 40°50' E 014°16'6 9.8
2016-Jun-15 15:34N 40°44' E 014°17'1110.9
2016-Jun-15 14:34N 40°33' E 014°15'0 0.2
2016-Jun-15 13:33N 40°33' E 014°14'0 0.0
2016-Jun-15 12:33N 40°33' E 014°14'0 0.0
2016-Jun-15 11:33N 40°33' E 014°14'1713.8
2016-Jun-15 10:20N 40°50' E 014°16'1721.5
2016-Jun-15 09:33N 40°33' E 014°14'0 0.0
2016-Jun-15 08:33N 40°33' E 014°14'  

Dump ship's entire track history